CheckWX is a tool to help pilots better visualize weather data.  It is not intended as a substitute for an official pre-flight weather briefing.

09:42:36 UTC

KGGP METAR
Logansport / Cass County Airport
Logansport, Indiana, USA
Current

8 mins ago

KGGP 180935Z AUTO 36004KT 3SM BR BKN025 BKN034 18/18 A2996 RMK AO2
Observed
Jun-18 @ 09:35 UTC
Wind
  • 360° at 4 KTS
Visibility
3 SM
Flight Rules
MVFR
Conditions
Mist
Cloud Levels
  • Broken at 2,500' AGL
  • Broken at 3,400' AGL
Temperature
18°C / 64°F
Dewpoint
18°C / 64°F
Humidity
100%
Altimeter
29.96" Hg
Pressure
1014.52 hPa
Previous

28 mins ago

KGGP 180915Z AUTO 03003KT 4SM BR BKN025 BKN034 18/18 A2996 RMK AO2
Observed
Jun-18 @ 09:15 UTC
Wind
  • 030° at 3 KTS
Visibility
4 SM
Flight Rules
MVFR
Conditions
Mist
Cloud Levels
  • Broken at 2,500' AGL
  • Broken at 3,400' AGL
Temperature
18°C / 64°F
Dewpoint
18°C / 64°F
Humidity
100%
Altimeter
29.96" Hg
Pressure
1014.52 hPa
Previous

48 mins ago

KGGP 180855Z AUTO 02003KT 4SM BR SCT025 BKN032 18/18 A2996 RMK AO2
Observed
Jun-18 @ 08:55 UTC
Wind
  • 020° at 3 KTS
Visibility
4 SM
Flight Rules
MVFR
Conditions
Mist
Cloud Levels
  • Scattered at 2,500' AGL
  • Broken at 3,200' AGL
Temperature
18°C / 64°F
Dewpoint
18°C / 64°F
Humidity
100%
Altimeter
29.96" Hg
Pressure
1014.52 hPa